createdAt,value
2023-01-13T00:00:09.648Z,96692.81
2023-01-13T00:02:36.284Z,96689.88
2023-01-13T00:05:03.849Z,96699.16
2023-01-13T00:07:30.476Z,96692.13
2023-01-13T00:09:57.094Z,96698.97
2023-01-13T00:12:23.645Z,96690.09
2023-01-13T00:14:50.216Z,96690.53
2023-01-13T00:17:16.767Z,96686.69
2023-01-13T00:19:43.284Z,96686.81
2023-01-13T00:22:09.896Z,96679.44
2023-01-13T00:24:36.449Z,96682.78
2023-01-13T00:27:03.135Z,96669.38
2023-01-13T00:29:29.732Z,96664.75
2023-01-13T00:31:56.365Z,96674.31
2023-01-13T00:34:22.923Z,96675.09
2023-01-13T00:36:49.470Z,96668.44
2023-01-13T00:39:16.111Z,96670.34
2023-01-13T00:42:01.335Z,96667.13
2023-01-13T00:44:27.857Z,96652.75
2023-01-13T00:46:54.460Z,96658.28
2023-01-13T00:49:20.997Z,96653.53
2023-01-13T00:51:47.514Z,96649.56
2023-01-13T00:54:14.035Z,96656.97
2023-01-13T00:56:41.520Z,96644.34
2023-01-13T00:59:11.484Z,96640.72
2023-01-13T01:01:38.540Z,96638.84
2023-01-13T01:04:05.487Z,96640.66
2023-01-13T01:06:32.070Z,96644.56
2023-01-13T01:08:58.780Z,96639.41
2023-01-13T01:11:31.062Z,96639.47
2023-01-13T01:14:00.185Z,96641.56
2023-01-13T01:16:28.686Z,96645.63
2023-01-13T01:18:55.692Z,96635.94
2023-01-13T01:21:24.244Z,96648.72
2023-01-13T01:23:51.249Z,96642.97
2023-01-13T01:26:20.328Z,96652.84
2023-01-13T01:28:47.332Z,96645.34
2023-01-13T01:31:23.276Z,96655.66
2023-01-13T01:33:50.997Z,96651.84
2023-01-13T01:36:20.190Z,96653.25
2023-01-13T01:38:47.706Z,96659.66
2023-01-13T01:41:19.897Z,96667.78
2023-01-13T01:44:05.996Z,96654.66
2023-01-13T01:46:40.882Z,96660.63
2023-01-13T01:49:21.579Z,96657.19
2023-01-13T01:52:02.201Z,96652.59
2023-01-13T01:54:38.515Z,96632.53
2023-01-13T01:57:08.330Z,96636.84
2023-01-13T01:59:36.539Z,96638.59
2023-01-13T02:02:03.311Z,96628.63
2023-01-13T02:04:34.651Z,96627.00
2023-01-13T02:07:02.851Z,96626.13
2023-01-13T02:09:30.473Z,96628.53
2023-01-13T02:12:15.788Z,96623.25
2023-01-13T02:14:43.144Z,96627.59
2023-01-13T02:17:31.975Z,96624.22
2023-01-13T02:20:12.590Z,96615.00
2023-01-13T02:22:52.040Z,96615.22
2023-01-13T02:25:55.937Z,96618.81
2023-01-13T02:29:08.544Z,96612.72
2023-01-13T02:31:43.705Z,96614.50
2023-01-13T02:34:13.486Z,96615.31
2023-01-13T02:36:52.803Z,96605.16
2023-01-13T02:39:28.105Z,96611.81
2023-01-13T02:42:40.550Z,96594.34
2023-01-13T02:45:13.085Z,96593.44
2023-01-13T02:47:42.415Z,96589.63
2023-01-13T02:50:17.476Z,96595.94
2023-01-13T02:52:50.400Z,96594.06
2023-01-13T02:55:22.145Z,96599.31
2023-01-13T02:57:51.109Z,96593.22
2023-01-13T03:00:19.270Z,96587.69
2023-01-13T03:02:48.014Z,96594.84
2023-01-13T03:05:16.769Z,96596.00
2023-01-13T03:08:09.549Z,96578.69
2023-01-13T03:11:06.427Z,96582.50
2023-01-13T03:13:56.899Z,96574.91
2023-01-13T03:16:51.296Z,96571.81
2023-01-13T03:19:48.674Z,96574.53
2023-01-13T03:22:22.846Z,96557.19
2023-01-13T03:25:00.971Z,96562.22
2023-01-13T03:27:37.108Z,96568.06
2023-01-13T03:30:07.416Z,96565.69
2023-01-13T03:32:38.033Z,96565.81
2023-01-13T03:35:21.641Z,96567.84
2023-01-13T03:37:58.281Z,96565.22
2023-01-13T03:40:28.894Z,96572.41
2023-01-13T03:43:21.152Z,96564.59
2023-01-13T03:45:51.648Z,96568.88
2023-01-13T03:48:20.971Z,96553.41
2023-01-13T03:50:52.117Z,96553.91
2023-01-13T03:53:26.730Z,96544.56
2023-01-13T03:55:59.515Z,96540.69
2023-01-13T03:58:33.755Z,96535.03
2023-01-13T04:01:10.040Z,96529.00
2023-01-13T04:04:03.147Z,96525.59
2023-01-13T04:06:51.649Z,96530.56
2023-01-13T04:09:31.043Z,96518.38
2023-01-13T04:12:25.607Z,96517.84
2023-01-13T04:14:53.523Z,96512.94
2023-01-13T04:17:20.300Z,96514.25
2023-01-13T04:19:46.950Z,96509.34
2023-01-13T04:22:13.408Z,96510.06
2023-01-13T04:24:39.779Z,96509.25
2023-01-13T04:27:06.300Z,96494.84
2023-01-13T04:29:32.729Z,96504.72
2023-01-13T04:31:59.317Z,96498.97
2023-01-13T04:34:28.203Z,96506.34
2023-01-13T04:36:54.972Z,96503.84
2023-01-13T04:39:21.471Z,96507.25
2023-01-13T04:41:59.910Z,96496.16
2023-01-13T04:44:27.233Z,96503.19
2023-01-13T04:46:53.876Z,96499.84
2023-01-13T04:49:20.403Z,96501.09
2023-01-13T04:51:46.935Z,96508.09
2023-01-13T04:54:13.477Z,96504.31
2023-01-13T04:56:40.087Z,96490.13
2023-01-13T04:59:06.501Z,96497.63
2023-01-13T05:01:33.193Z,96494.84
2023-01-13T05:03:59.630Z,96507.03
2023-01-13T05:06:26.148Z,96501.91
2023-01-13T05:08:52.581Z,96501.84
2023-01-13T05:11:37.663Z,96498.78
2023-01-13T05:14:22.582Z,96492.16
2023-01-13T05:17:00.910Z,96490.69
2023-01-13T05:19:32.477Z,96490.59
2023-01-13T05:22:18.203Z,96497.63
2023-01-13T05:25:03.309Z,96496.41
2023-01-13T05:27:31.066Z,96504.81
2023-01-13T05:29:57.509Z,96500.94
2023-01-13T05:32:24.477Z,96502.41
2023-01-13T05:34:50.992Z,96502.03
2023-01-13T05:37:17.451Z,96507.81
2023-01-13T05:40:02.457Z,96501.09
2023-01-13T05:42:47.307Z,96500.03
2023-01-13T05:45:13.729Z,96506.25
2023-01-13T05:47:40.462Z,96499.22
2023-01-13T05:50:07.259Z,96504.09
2023-01-13T05:52:33.776Z,96500.75
2023-01-13T05:55:00.361Z,96499.47
2023-01-13T05:57:26.785Z,96496.56
2023-01-13T05:59:53.242Z,96497.44
2023-01-13T06:02:19.665Z,96504.88
2023-01-13T06:04:46.195Z,96500.91
2023-01-13T06:07:12.759Z,96507.06
2023-01-13T06:09:39.316Z,96504.81
2023-01-13T06:12:06.018Z,96503.47
2023-01-13T06:14:41.354Z,96501.84
2023-01-13T06:17:08.945Z,96501.31
2023-01-13T06:19:35.704Z,96500.09
2023-01-13T06:22:23.217Z,96514.91
2023-01-13T06:24:51.087Z,96519.53
2023-01-13T06:27:18.345Z,96510.41
2023-01-13T06:29:44.837Z,96503.34
2023-01-13T06:32:18.861Z,96508.75
2023-01-13T06:34:51.310Z,96517.09
2023-01-13T06:37:23.394Z,96513.22
2023-01-13T06:39:49.983Z,96509.47
2023-01-13T06:42:35.124Z,96508.69
2023-01-13T06:45:01.714Z,96511.16
2023-01-13T06:47:28.138Z,96518.94
2023-01-13T06:49:54.570Z,96518.44
2023-01-13T06:52:21.516Z,96509.06
2023-01-13T06:54:48.031Z,96502.94
2023-01-13T06:57:14.407Z,96512.56
2023-01-13T06:59:40.818Z,96511.03
2023-01-13T07:02:07.369Z,96511.72
2023-01-13T07:04:33.847Z,96508.50
2023-01-13T07:07:00.218Z,96509.88
2023-01-13T07:09:26.627Z,96501.03
2023-01-13T07:11:53.058Z,96510.47
2023-01-13T07:14:38.052Z,96517.72
2023-01-13T07:17:04.514Z,96509.34
2023-01-13T07:19:31.018Z,96512.28
2023-01-13T07:21:57.421Z,96504.84
2023-01-13T07:24:23.890Z,96506.84
2023-01-13T07:26:51.645Z,96508.25
2023-01-13T07:29:18.503Z,96505.28
2023-01-13T07:31:45.087Z,96501.00
2023-01-13T07:34:11.674Z,96502.69
2023-01-13T07:36:39.188Z,96505.22
2023-01-13T07:39:05.735Z,96507.38
2023-01-13T07:41:50.717Z,96508.72
2023-01-13T07:44:17.513Z,96515.81
2023-01-13T07:46:43.918Z,96504.25
2023-01-13T07:49:10.430Z,96514.81
2023-01-13T07:51:40.165Z,96501.03
2023-01-13T07:54:07.004Z,96511.06
2023-01-13T07:56:33.727Z,96516.06
2023-01-13T07:59:01.071Z,96516.56
2023-01-13T08:01:28.252Z,96528.19
2023-01-13T08:03:56.405Z,96534.06
2023-01-13T08:06:23.444Z,96541.94
2023-01-13T08:08:50.129Z,96542.75
2023-01-13T08:11:16.776Z,96536.44
2023-01-13T08:13:43.136Z,96534.75
2023-01-13T08:16:12.589Z,96538.41
2023-01-13T08:18:39.803Z,96531.56
2023-01-13T08:21:11.939Z,96545.69
2023-01-13T08:23:38.871Z,96552.88
2023-01-13T08:26:08.163Z,96548.25
2023-01-13T08:28:35.165Z,96564.53
2023-01-13T08:31:04.389Z,96559.16
2023-01-13T08:33:31.210Z,96557.16
2023-01-13T08:35:57.961Z,96554.81
2023-01-13T08:38:24.792Z,96560.25
2023-01-13T08:40:51.281Z,96555.00
2023-01-13T08:43:17.681Z,96569.13
2023-01-13T08:45:44.130Z,96576.22
2023-01-13T08:48:10.654Z,96569.66
2023-01-13T08:50:37.065Z,96575.44
2023-01-13T08:53:03.886Z,96576.03
2023-01-13T08:55:30.481Z,96575.38
2023-01-13T08:58:14.321Z,96577.81
2023-01-13T09:00:42.246Z,96572.47
2023-01-13T09:03:08.696Z,96578.72
2023-01-13T09:05:35.766Z,96587.50
2023-01-13T09:08:02.402Z,96584.44
2023-01-13T09:10:28.936Z,96595.63
2023-01-13T09:13:13.793Z,96589.25
2023-01-13T09:15:43.636Z,96584.00
2023-01-13T09:18:10.551Z,96596.97
2023-01-13T09:20:37.948Z,96597.94
2023-01-13T09:23:06.494Z,96601.91
2023-01-13T09:25:36.560Z,96604.44
2023-01-13T09:28:04.886Z,96605.22
2023-01-13T09:30:31.794Z,96618.81
2023-01-13T09:33:17.737Z,96609.38
2023-01-13T09:35:44.341Z,96619.13
2023-01-13T09:38:10.722Z,96632.75
2023-01-13T09:40:39.616Z,96622.66
2023-01-13T09:43:39.810Z,96637.63
2023-01-13T09:46:44.095Z,96647.50
2023-01-13T09:49:32.943Z,96651.06
2023-01-13T09:52:14.984Z,96660.53
2023-01-13T09:54:48.624Z,96666.81
2023-01-13T09:57:16.964Z,96653.38
2023-01-13T09:59:44.176Z,96661.31
2023-01-13T10:02:35.409Z,96664.38
2023-01-13T10:05:27.866Z,96667.69
2023-01-13T10:07:59.221Z,96666.78
2023-01-13T10:10:39.817Z,96680.91
2023-01-13T10:13:20.255Z,96681.13
2023-01-13T10:16:02.756Z,96681.41
2023-01-13T10:18:37.633Z,96669.16
2023-01-13T10:21:24.538Z,96668.63
2023-01-13T10:23:58.276Z,96668.03
2023-01-13T10:26:57.018Z,96671.84
2023-01-13T10:29:28.468Z,96664.63
2023-01-13T10:31:56.361Z,96667.16
2023-01-13T10:34:23.840Z,96667.72
2023-01-13T10:37:00.619Z,96664.56
2023-01-13T10:39:27.763Z,96651.13
2023-01-13T10:42:02.841Z,96660.06
2023-01-13T10:44:47.434Z,96666.69
2023-01-13T10:47:47.531Z,96667.50
2023-01-13T10:50:13.938Z,96664.56
2023-01-13T10:53:01.705Z,96651.09
2023-01-13T10:55:38.167Z,96650.03
2023-01-13T10:58:20.984Z,96651.22
2023-01-13T11:00:49.261Z,96661.50
2023-01-13T11:03:23.128Z,96673.56
2023-01-13T11:05:59.170Z,96704.91
2023-01-13T11:08:43.213Z,96719.06
2023-01-13T11:11:27.295Z,96713.31
2023-01-13T11:14:16.215Z,96739.72
2023-01-13T11:16:53.030Z,96732.72
2023-01-13T11:19:27.649Z,96732.84
2023-01-13T11:22:15.425Z,96723.78
2023-01-13T11:24:51.331Z,96740.47
2023-01-13T11:27:24.228Z,96743.31
2023-01-13T11:30:18.687Z,96751.53
2023-01-13T11:33:09.948Z,96743.88
2023-01-13T11:35:43.641Z,96759.34
2023-01-13T11:38:52.190Z,96775.03
2023-01-13T11:41:42.544Z,96782.72
2023-01-13T11:44:25.728Z,96793.72
2023-01-13T11:46:53.642Z,96782.06
2023-01-13T11:49:29.393Z,96788.63
2023-01-13T11:52:15.259Z,96780.63
2023-01-13T11:55:01.241Z,96785.06
2023-01-13T11:58:05.290Z,96769.66
2023-01-13T12:00:56.773Z,96779.63
2023-01-13T12:03:31.197Z,96780.78
2023-01-13T12:21:59.271Z,96777.78
2023-01-13T12:24:53.177Z,96775.03
2023-01-13T12:28:04.612Z,96782.84
2023-01-13T12:30:44.480Z,96786.41
2023-01-13T12:33:24.491Z,96786.41
2023-01-13T12:40:01.099Z,96813.41
2023-01-13T12:42:56.848Z,96804.25
2023-01-13T12:45:28.975Z,96816.28
2023-01-13T12:52:22.153Z,96816.47
2023-01-13T12:58:29.708Z,96815.22
2023-01-13T13:01:32.011Z,96818.16
2023-01-13T13:04:21.795Z,96810.25
2023-01-13T13:07:10.231Z,96801.41
2023-01-13T13:09:52.230Z,96797.41
2023-01-13T13:13:00.749Z,96797.75
2023-01-13T13:15:29.421Z,96790.25
2023-01-13T13:18:17.130Z,96793.38
2023-01-13T13:21:06.921Z,96797.22
2023-01-13T13:23:33.274Z,96789.50
2023-01-13T13:26:17.407Z,96796.16
2023-01-13T13:28:59.007Z,96798.13
2023-01-13T13:31:33.537Z,96799.75
2023-01-13T13:34:20.411Z,96787.16
2023-01-13T13:38:00.158Z,96797.22
2023-01-13T13:40:50.069Z,96802.44
2023-01-13T13:43:36.301Z,96809.31
2023-01-13T13:46:21.306Z,96804.69
2023-01-13T13:48:53.868Z,96808.38
2023-01-13T13:51:27.879Z,96811.25
2023-01-13T13:53:55.843Z,96810.34
2023-01-13T13:56:24.099Z,96816.97
2023-01-13T13:58:52.299Z,96820.06
2023-01-13T14:01:28.415Z,96810.19
2023-01-13T14:04:23.413Z,96807.91
2023-01-13T14:07:00.675Z,96818.56
2023-01-13T14:09:28.769Z,96816.84
2023-01-13T14:12:03.771Z,96820.00
2023-01-13T14:14:30.458Z,96818.47
2023-01-13T14:16:57.078Z,96832.13
2023-01-13T14:19:31.062Z,96832.31
2023-01-13T14:22:01.250Z,96834.59
2023-01-13T14:24:29.554Z,96837.97
2023-01-13T14:27:15.346Z,96833.19
2023-01-13T14:29:42.098Z,96836.56
2023-01-13T14:32:09.139Z,96846.06
2023-01-13T14:34:36.224Z,96850.69
2023-01-13T14:37:03.096Z,96860.13
2023-01-13T14:39:39.611Z,96859.75
2023-01-13T14:42:12.304Z,96866.44
2023-01-13T14:44:45.507Z,96874.59
2023-01-13T14:47:28.003Z,96871.59
2023-01-13T14:50:03.821Z,96875.81
2023-01-13T14:52:36.481Z,96872.88
2023-01-13T14:55:05.690Z,96871.22
2023-01-13T14:57:37.009Z,96885.59
2023-01-13T15:00:15.372Z,96883.44
2023-01-13T15:02:57.192Z,96893.19
2023-01-13T15:05:33.920Z,96892.03
2023-01-13T15:08:05.222Z,96891.22
2023-01-13T15:10:46.360Z,96897.00
2023-01-13T15:13:48.056Z,96893.63
2023-01-13T15:16:24.849Z,96900.47
2023-01-13T15:18:52.235Z,96896.41
2023-01-13T15:21:18.836Z,96902.59
2023-01-13T15:23:47.193Z,96900.81
2023-01-13T15:26:23.009Z,96912.78
2023-01-13T15:28:50.678Z,96921.09
2023-01-13T15:31:17.960Z,96930.66
2023-01-13T15:33:44.464Z,96932.66
2023-01-13T15:36:29.031Z,96929.25
2023-01-13T15:38:55.808Z,96923.56
2023-01-13T15:41:41.160Z,96934.19
2023-01-13T15:44:29.107Z,96932.81
2023-01-13T15:46:56.407Z,96929.25
2023-01-13T15:49:44.086Z,96928.53
2023-01-13T15:52:22.921Z,96925.25
2023-01-13T15:54:50.573Z,96946.91
2023-01-13T15:57:23.363Z,96944.06
2023-01-13T15:59:51.794Z,96942.84
2023-01-13T16:02:18.485Z,96941.31
2023-01-13T16:04:45.670Z,96949.75
2023-01-13T16:07:17.187Z,96946.19
2023-01-13T16:09:44.957Z,96956.72
2023-01-13T16:12:12.625Z,96965.81
2023-01-13T16:14:39.474Z,96961.81
2023-01-13T16:17:20.798Z,96971.59
2023-01-13T16:19:47.566Z,96966.13
2023-01-13T16:22:15.440Z,96978.25
2023-01-13T16:24:42.208Z,96991.22
2023-01-13T16:27:20.127Z,96994.97
2023-01-13T16:29:47.567Z,96989.78
2023-01-13T16:32:14.334Z,97004.75
2023-01-13T16:34:40.809Z,97000.22
2023-01-13T16:37:20.614Z,97002.00
2023-01-13T16:39:47.530Z,97010.75
2023-01-13T16:42:14.327Z,97000.44
2023-01-13T16:44:41.049Z,97012.16
2023-01-13T16:50:46.314Z,97017.44
2023-01-13T16:53:12.737Z,97027.38
2023-01-13T16:55:40.766Z,97029.84
2023-01-13T16:58:17.113Z,97024.72
2023-01-13T17:00:46.833Z,97031.31
2023-01-13T17:03:14.886Z,97039.50
2023-01-13T17:05:43.100Z,97048.19
2023-01-13T17:08:17.213Z,97054.84
2023-01-13T17:10:45.376Z,97071.56
2023-01-13T17:13:16.430Z,97079.09
2023-01-13T17:15:43.428Z,97085.66
2023-01-13T17:18:58.939Z,97092.34
2023-01-13T17:21:25.365Z,97124.50
2023-01-13T17:23:53.230Z,97131.94
2023-01-13T17:26:32.098Z,97107.59
2023-01-13T17:29:00.388Z,97109.22
2023-01-13T17:31:28.063Z,97114.03
2023-01-13T17:33:54.682Z,97108.59
2023-01-13T17:36:21.235Z,97107.00
2023-01-13T17:38:47.621Z,97125.91
2023-01-13T17:41:14.080Z,97138.75
2023-01-13T17:43:40.513Z,97156.88
2023-01-13T17:46:11.578Z,97152.41
2023-01-13T17:48:38.441Z,97152.03
2023-01-13T17:51:09.365Z,97154.16
2023-01-13T17:53:35.868Z,97155.13
2023-01-13T17:56:02.249Z,97172.50
2023-01-13T17:58:28.652Z,97164.03
2023-01-13T18:00:55.059Z,97161.13
2023-01-13T18:03:21.534Z,97159.56
2023-01-13T18:05:47.958Z,97139.38
2023-01-13T18:08:14.470Z,97145.75
2023-01-13T18:10:40.872Z,97151.13
2023-01-13T18:13:09.300Z,97157.91
2023-01-13T18:15:36.015Z,97160.38
2023-01-13T18:18:02.403Z,97170.25
2023-01-13T18:20:47.341Z,97177.00
2023-01-13T18:23:37.195Z,97173.69
2023-01-13T18:26:34.535Z,97184.88
2023-01-13T18:29:01.189Z,97175.47
2023-01-13T18:31:28.276Z,97190.97
2023-01-13T18:33:54.708Z,97187.91
2023-01-13T18:36:21.366Z,97197.31
2023-01-13T18:38:49.889Z,97189.81
2023-01-13T18:41:35.053Z,97190.06
2023-01-13T18:44:01.453Z,97181.53
2023-01-13T18:46:27.993Z,97193.56
2023-01-13T18:48:54.367Z,97201.41
2023-01-13T18:51:20.777Z,97204.66
2023-01-13T18:53:47.464Z,97214.19
2023-01-13T18:56:14.222Z,97210.88
2023-01-13T18:58:52.036Z,97217.75
2023-01-13T19:01:26.675Z,97214.00
2023-01-13T19:03:54.522Z,97220.38
2023-01-13T19:06:21.277Z,97220.34
2023-01-13T19:08:53.010Z,97226.22
2023-01-13T19:11:21.486Z,97239.41
2023-01-13T19:13:48.619Z,97240.03
2023-01-13T19:16:16.108Z,97247.34
2023-01-13T19:18:42.908Z,97248.94
2023-01-13T19:21:09.597Z,97257.38
2023-01-13T19:23:36.731Z,97247.44
2023-01-13T19:26:05.902Z,97253.41
2023-01-13T19:28:32.544Z,97258.31
2023-01-13T19:31:01.479Z,97269.88
2023-01-13T19:33:33.208Z,97265.72
2023-01-13T19:35:59.797Z,97262.75
2023-01-13T19:38:27.899Z,97259.75
2023-01-13T19:41:02.399Z,97261.97
2023-01-13T19:43:57.989Z,97263.72
2023-01-13T19:46:26.096Z,97270.97
2023-01-13T19:48:52.665Z,97270.75
2023-01-13T19:51:19.153Z,97273.19
2023-01-13T19:53:46.828Z,97282.47
2023-01-13T19:56:14.478Z,97272.88
2023-01-13T19:58:41.975Z,97283.09
2023-01-13T20:01:10.262Z,97281.59
2023-01-13T20:03:37.710Z,97291.16
2023-01-13T20:06:08.855Z,97283.50
2023-01-13T20:08:35.452Z,97286.00
2023-01-13T20:11:21.526Z,97298.72
2023-01-13T20:13:49.155Z,97293.25
2023-01-13T20:16:15.611Z,97307.56
2023-01-13T20:18:42.040Z,97306.69
2023-01-13T20:21:09.906Z,97312.53
2023-01-13T20:23:36.353Z,97314.13
2023-01-13T20:26:07.568Z,97325.31
2023-01-13T20:28:37.369Z,97318.22
2023-01-13T20:31:08.243Z,97323.56
2023-01-13T20:33:34.712Z,97334.63
2023-01-13T20:36:01.687Z,97333.25
2023-01-13T20:38:28.692Z,97333.91
2023-01-13T20:40:59.490Z,97328.81
2023-01-13T20:43:26.956Z,97328.56
2023-01-13T20:45:54.163Z,97326.69
2023-01-13T20:48:20.747Z,97331.53
2023-01-13T20:50:53.164Z,97323.72
2023-01-13T20:53:19.858Z,97328.25
2023-01-13T20:55:46.266Z,97326.19
2023-01-13T20:58:12.659Z,97339.84
2023-01-13T21:00:39.123Z,97333.34
2023-01-13T21:03:05.494Z,97330.53
2023-01-13T21:05:33.267Z,97317.56
2023-01-13T21:07:59.831Z,97318.50
2023-01-13T21:10:26.414Z,97310.81
2023-01-13T21:13:11.462Z,97308.13
2023-01-13T21:15:38.008Z,97308.06
2023-01-13T21:18:23.126Z,97308.22
2023-01-13T21:20:51.539Z,97305.56
2023-01-13T21:23:17.970Z,97299.81
2023-01-13T21:25:44.351Z,97309.44
2023-01-13T21:28:12.021Z,97307.59
2023-01-13T21:30:39.104Z,97299.75
2023-01-13T21:33:06.139Z,97312.81
2023-01-13T21:35:32.603Z,97314.19
2023-01-13T21:37:59.022Z,97315.78
2023-01-13T21:40:25.462Z,97320.03
2023-01-13T21:43:10.558Z,97325.75
2023-01-13T21:45:57.607Z,97329.41
2023-01-13T21:48:24.120Z,97337.88
2023-01-13T21:50:50.627Z,97335.94
2023-01-13T21:53:16.985Z,97334.22
2023-01-13T21:55:43.496Z,97344.28
2023-01-13T21:58:14.370Z,97350.72
2023-01-13T22:00:43.566Z,97360.25
2023-01-13T22:03:12.006Z,97369.50
2023-01-13T22:05:38.556Z,97371.28
2023-01-13T22:08:06.356Z,97376.09
2023-01-13T22:10:33.453Z,97368.94
2023-01-13T22:13:20.388Z,97363.38
2023-01-13T22:15:46.966Z,97367.47
2023-01-13T22:18:13.519Z,97371.94
2023-01-13T22:20:41.343Z,97362.22
2023-01-13T22:23:07.784Z,97362.22
2023-01-13T22:25:34.185Z,97371.19
2023-01-13T22:28:03.708Z,97369.53
2023-01-13T22:30:32.483Z,97352.28
2023-01-13T22:32:59.772Z,97355.91
2023-01-13T22:35:26.151Z,97363.25
2023-01-13T22:37:52.517Z,97354.63
2023-01-13T22:40:19.011Z,97362.44
2023-01-13T22:42:45.531Z,97365.75
2023-01-13T22:45:13.843Z,97379.22
2023-01-13T22:47:40.477Z,97365.47
2023-01-13T22:50:08.042Z,97370.66
2023-01-13T22:52:34.908Z,97366.38
2023-01-13T22:55:01.637Z,97372.41
2023-01-13T22:57:47.598Z,97377.72
2023-01-13T23:00:16.235Z,97384.63
2023-01-13T23:02:42.752Z,97382.75
2023-01-13T23:05:09.373Z,97372.06
2023-01-13T23:07:36.156Z,97383.28
2023-01-13T23:10:03.776Z,97375.03
2023-01-13T23:12:30.213Z,97368.75
2023-01-13T23:14:56.598Z,97361.38
2023-01-13T23:17:23.042Z,97364.13
2023-01-13T23:19:49.382Z,97382.84
2023-01-13T23:22:15.844Z,97382.25
2023-01-13T23:24:42.225Z,97380.63
2023-01-13T23:27:08.633Z,97379.88
2023-01-13T23:29:35.045Z,97373.78
2023-01-13T23:32:01.387Z,97368.69
2023-01-13T23:34:27.904Z,97368.69
2023-01-13T23:36:54.352Z,97372.75
2023-01-13T23:39:20.717Z,97374.25
2023-01-13T23:41:47.045Z,97375.41
2023-01-13T23:44:13.459Z,97370.94
2023-01-13T23:46:39.867Z,97372.88
2023-01-13T23:49:06.345Z,97369.91
2023-01-13T23:51:33.138Z,97366.31
2023-01-13T23:53:59.834Z,97373.78
2023-01-13T23:56:29.075Z,97366.19
2023-01-13T23:58:56.420Z,97366.38
